Enter the Airport ICAO Code

Search by Airport or City

Current Weather

MSLP | Monseñor Óscar Arnulfo Romero International Airport

San Salvador, El Salvador

Last Update 12 Minutes Ago

Clear Sky

Temperature of 26 ºC

Light to Moderate Winds from NorthEast

Temperature

26 ºC

Dew Point Temperature

16 ºC

Relative Humidity

54.28 %

Wind Direction

NorthEast (040º, Without Significant Variations)

Wind Velocity

15 km/h (08 kt)

Gusts

None

Visibility

No Significant Reductions

Sea Level Pressure

1013 hPa (Hectopascals)

Layers of Clouds

None

METAR MSLP 090950Z 04008KT CAVOK 26/16 Q1013 A2994 NOSIG

Weather Forecast

MSLP | Monseñor Óscar Arnulfo Romero International Airport

San Salvador, El Salvador

Forecast valid for the next 26 Hours

In 2 hours it is expected the begining of:

Clear Sky

Moderate Winds from North with Gusts

In 8 hours it is expected the begining of:

Sky with Few Clouds

Moderate Winds from South with Gusts

In 14 hours it is expected the begining of:

Clear Sky

Moderate Winds from North

Maximum Temperature

36 ºC in 8 Hours

Minimum Temperature

21 ºC in 24 Hours

TAF MSLP 090925Z 0912/1012 02010G25KT CAVOK TX36/0918Z TN21/1010Z FM091800 16010G20KT 9999 FEW060 FM100000 02012KT CAVOK